Artesia Camp, New Mexico
Current Conditions -  °F | °C
As of 1:58 PM on Friday 24 Oct 2014 (Local Time) from KHMN Reporting Station
Clear Clear  
Wind Chill: 78°   Ceiling: Unl
Heat Index: 79°   Visibility: 10mi
Dew Point: 48°   Wind: 0mph
Humidity: 34%   Direction: NA
Pressure: 30.2"   Gusts: NA
Location:  32.7847°N, 105.644°W
Report Text: KHMN 241958Z AUTO 00000KT 10SM CLR 26/09 A3020 RMK AO2 SLP173 T02570089 $
Loading
Personal Weather Stations






























Interactive Weather Map
Tropical Storm Tracking
New forecast layout! Learn more

10-Day Weather Forecast

Advertisements
Track Severe Weather on mobile